createdAt,value
2023-02-08T00:01:19.137Z,100.00
2023-02-08T00:03:47.580Z,100.00
2023-02-08T00:06:17.565Z,100.00
2023-02-08T00:08:46.333Z,100.00
2023-02-08T00:11:14.614Z,100.00
2023-02-08T00:13:43.025Z,100.00
2023-02-08T00:16:12.422Z,100.00
2023-02-08T00:18:40.723Z,100.00
2023-02-08T00:21:11.070Z,100.00
2023-02-08T00:23:40.754Z,100.00
2023-02-08T00:26:09.566Z,100.00
2023-02-08T00:28:38.267Z,100.00
2023-02-08T00:31:07.071Z,100.00
2023-02-08T00:33:36.021Z,100.00
2023-02-08T00:36:06.401Z,100.00
2023-02-08T00:38:34.903Z,100.00
2023-02-08T00:41:04.882Z,100.00
2023-02-08T00:43:33.312Z,100.00
2023-02-08T00:46:01.400Z,100.00
2023-02-08T00:48:30.002Z,100.00
2023-02-08T00:51:00.041Z,100.00
2023-02-08T00:53:28.193Z,100.00
2023-02-08T00:55:57.574Z,100.00
2023-02-08T00:58:28.200Z,100.00
2023-02-08T01:00:56.620Z,100.00
2023-02-08T01:03:25.460Z,100.00
2023-02-08T01:05:53.924Z,100.00
2023-02-08T01:08:22.391Z,100.00
2023-02-08T01:10:50.487Z,100.00
2023-02-08T01:13:18.769Z,100.00
2023-02-08T01:15:48.283Z,100.00
2023-02-08T01:18:16.844Z,100.00
2023-02-08T01:20:44.919Z,100.00
2023-02-08T01:23:12.977Z,100.00
2023-02-08T01:25:41.920Z,100.00
2023-02-08T01:28:10.207Z,100.00
2023-02-08T01:30:39.288Z,100.00
2023-02-08T01:33:08.990Z,100.00
2023-02-08T01:35:37.100Z,100.00
2023-02-08T01:38:05.903Z,100.00
2023-02-08T01:40:33.965Z,100.00
2023-02-08T01:43:02.038Z,100.00
2023-02-08T01:45:32.011Z,100.00
2023-02-08T01:48:05.951Z,100.00
2023-02-08T01:50:43.000Z,100.00
2023-02-08T01:53:11.939Z,100.00
2023-02-08T01:55:44.308Z,100.00
2023-02-08T01:58:15.651Z,100.00
2023-02-08T02:00:44.015Z,100.00
2023-02-08T02:03:14.589Z,100.00
2023-02-08T02:05:46.719Z,100.00
2023-02-08T02:08:15.108Z,100.00
2023-02-08T02:10:44.916Z,100.00
2023-02-08T02:13:15.563Z,100.00
2023-02-08T02:15:46.130Z,100.00
2023-02-08T02:18:19.158Z,100.00
2023-02-08T02:21:04.343Z,100.00
2023-02-08T02:24:06.828Z,100.00
2023-02-08T02:27:13.903Z,100.00
2023-02-08T02:30:24.761Z,100.00
2023-02-08T02:33:06.903Z,100.00
2023-02-08T02:35:45.197Z,100.00
2023-02-08T02:38:21.857Z,100.00
2023-02-08T02:41:08.108Z,100.00
2023-02-08T02:43:46.487Z,100.00
2023-02-08T02:46:26.043Z,100.00
2023-02-08T02:49:03.462Z,100.00
2023-02-08T02:51:41.253Z,100.00
2023-02-08T02:54:15.720Z,100.00
2023-02-08T02:56:46.885Z,100.00
2023-02-08T02:59:17.099Z,100.00
2023-02-08T03:01:47.536Z,100.00
2023-02-08T03:04:19.191Z,100.00
2023-02-08T03:07:01.766Z,100.00
2023-02-08T03:09:46.849Z,100.00
2023-02-08T03:12:29.283Z,100.00
2023-02-08T03:15:06.427Z,100.00
2023-02-08T03:17:51.349Z,100.00
2023-02-08T03:20:26.159Z,100.00
2023-02-08T03:23:02.293Z,100.00
2023-02-08T03:25:37.910Z,100.00
2023-02-08T03:28:12.974Z,100.00
2023-02-08T03:30:51.392Z,100.00
2023-02-08T03:33:26.863Z,100.00
2023-02-08T03:36:03.296Z,100.00
2023-02-08T03:38:35.819Z,100.00
2023-02-08T03:41:07.751Z,100.00
2023-02-08T03:43:41.336Z,100.00
2023-02-08T03:46:13.122Z,100.00
2023-02-08T03:48:47.545Z,100.00
2023-02-08T03:51:17.960Z,100.00
2023-02-08T03:53:48.172Z,100.00
2023-02-08T03:56:21.998Z,100.00
2023-02-08T03:58:57.626Z,100.00
2023-02-08T04:01:31.599Z,100.00
2023-02-08T04:04:01.129Z,100.00
2023-02-08T04:06:30.984Z,100.00
2023-02-08T04:08:59.151Z,100.00
2023-02-08T04:11:27.229Z,100.00
2023-02-08T04:13:55.355Z,100.00
2023-02-08T04:16:23.477Z,100.00
2023-02-08T04:18:51.574Z,100.00
2023-02-08T04:21:19.653Z,100.00
2023-02-08T04:23:49.167Z,100.00
2023-02-08T04:26:17.240Z,100.00
2023-02-08T04:28:45.336Z,100.00
2023-02-08T04:31:13.509Z,100.00
2023-02-08T04:33:41.691Z,100.00
2023-02-08T04:36:10.735Z,100.00
2023-02-08T04:38:38.914Z,100.00
2023-02-08T04:41:08.567Z,100.00
2023-02-08T04:43:36.838Z,100.00
2023-02-08T04:46:05.352Z,100.00
2023-02-08T04:48:33.552Z,100.00
2023-02-08T04:51:01.785Z,100.00
2023-02-08T04:53:29.998Z,100.00
2023-02-08T04:55:58.122Z,100.00
2023-02-08T04:58:27.619Z,100.00
2023-02-08T05:00:55.788Z,100.00
2023-02-08T05:03:24.110Z,100.00
2023-02-08T05:05:58.734Z,100.00
2023-02-08T05:08:27.584Z,100.00
2023-02-08T05:10:56.128Z,100.00
2023-02-08T05:13:24.315Z,100.00
2023-02-08T05:15:54.183Z,100.00
2023-02-08T05:18:22.428Z,100.00
2023-02-08T05:20:56.143Z,100.00
2023-02-08T05:23:24.301Z,100.00
2023-02-08T05:25:52.816Z,100.00
2023-02-08T05:28:21.184Z,100.00
2023-02-08T05:30:49.518Z,100.00
2023-02-08T05:33:19.685Z,100.00
2023-02-08T05:35:47.815Z,100.00
2023-02-08T05:38:16.138Z,100.00
2023-02-08T05:40:44.233Z,100.00
2023-02-08T05:43:12.367Z,100.00
2023-02-08T05:45:40.494Z,100.00
2023-02-08T05:48:08.710Z,100.00
2023-02-08T05:50:38.329Z,100.00
2023-02-08T05:53:06.573Z,100.00
2023-02-08T05:55:34.788Z,100.00
2023-02-08T05:58:02.993Z,100.00
2023-02-08T06:00:31.096Z,100.00
2023-02-08T06:02:59.681Z,100.00
2023-02-08T06:05:27.772Z,100.00
2023-02-08T06:07:57.499Z,100.00
2023-02-08T06:10:25.686Z,100.00
2023-02-08T06:12:53.903Z,100.00
2023-02-08T06:15:22.064Z,100.00
2023-02-08T06:17:50.259Z,100.00
2023-02-08T06:20:18.829Z,100.00
2023-02-08T06:22:46.980Z,100.00
2023-02-08T06:25:16.676Z,100.00
2023-02-08T06:27:44.806Z,100.00
2023-02-08T06:30:13.615Z,100.00
2023-02-08T06:32:41.741Z,100.00
2023-02-08T06:35:10.313Z,100.00
2023-02-08T06:37:38.848Z,100.00
2023-02-08T06:40:07.943Z,100.00
2023-02-08T06:42:37.521Z,100.00
2023-02-08T06:45:08.375Z,100.00
2023-02-08T06:47:36.772Z,100.00
2023-02-08T06:50:05.233Z,100.00
2023-02-08T06:52:33.362Z,100.00
2023-02-08T06:55:01.530Z,100.00
2023-02-08T06:57:29.727Z,100.00
2023-02-08T06:59:59.220Z,100.00
2023-02-08T07:02:27.813Z,100.00
2023-02-08T07:04:55.986Z,100.00
2023-02-08T07:07:24.159Z,100.00
2023-02-08T07:09:52.315Z,100.00
2023-02-08T07:12:20.416Z,100.00
2023-02-08T07:14:48.537Z,100.00
2023-02-08T07:17:18.064Z,100.00
2023-02-08T07:19:46.205Z,100.00
2023-02-08T07:22:14.318Z,100.00
2023-02-08T07:24:43.024Z,100.00
2023-02-08T07:27:13.148Z,100.00
2023-02-08T07:29:41.593Z,100.00
2023-02-08T07:32:11.604Z,100.00
2023-02-08T07:34:41.537Z,100.00
2023-02-08T07:37:09.682Z,100.00
2023-02-08T07:39:37.898Z,100.00
2023-02-08T07:42:07.412Z,100.00
2023-02-08T07:44:42.544Z,100.00
2023-02-08T07:47:10.913Z,100.00
2023-02-08T07:49:39.049Z,100.00
2023-02-08T07:52:08.607Z,100.00
2023-02-08T07:54:36.733Z,98.11
2023-02-08T07:57:05.062Z,99.15
2023-02-08T07:59:33.234Z,99.16
2023-02-08T08:02:01.419Z,97.74
2023-02-08T08:04:29.570Z,97.19
2023-02-08T08:06:57.708Z,96.05
2023-02-08T08:09:27.321Z,95.96
2023-02-08T08:11:55.470Z,94.46
2023-02-08T08:14:23.662Z,94.71
2023-02-08T08:16:51.804Z,92.57
2023-02-08T08:19:19.951Z,91.63
2023-02-08T08:21:48.064Z,90.30
2023-02-08T08:24:16.216Z,91.70
2023-02-08T08:26:45.737Z,89.44
2023-02-08T08:29:14.400Z,85.45
2023-02-08T08:31:44.380Z,86.98
2023-02-08T08:34:12.605Z,84.46
2023-02-08T08:36:40.749Z,86.21
2023-02-08T08:39:08.968Z,84.71
2023-02-08T08:41:37.356Z,83.09
2023-02-08T08:44:07.251Z,84.69
2023-02-08T08:46:35.462Z,84.34
2023-02-08T08:49:03.619Z,85.91
2023-02-08T08:51:35.291Z,86.18
2023-02-08T08:54:03.697Z,84.82
2023-02-08T08:56:31.845Z,87.86
2023-02-08T08:59:00.577Z,88.48
2023-02-08T09:01:31.425Z,82.53
2023-02-08T09:04:00.492Z,77.55
2023-02-08T09:06:28.721Z,78.02
2023-02-08T09:08:56.853Z,75.37
2023-02-08T09:11:25.191Z,74.98
2023-02-08T09:13:56.163Z,74.86
2023-02-08T09:16:25.722Z,71.13
2023-02-08T09:18:55.352Z,67.28
2023-02-08T09:21:25.924Z,64.86
2023-02-08T09:23:54.119Z,64.37
2023-02-08T09:26:22.972Z,65.32
2023-02-08T09:28:51.089Z,64.48
2023-02-08T09:31:21.845Z,63.75
2023-02-08T09:33:51.166Z,62.94
2023-02-08T09:36:21.604Z,61.37
2023-02-08T09:38:50.873Z,60.02
2023-02-08T09:41:34.246Z,61.15
2023-02-08T09:44:16.974Z,59.35
2023-02-08T09:46:53.410Z,61.67
2023-02-08T09:49:27.683Z,63.49
2023-02-08T09:52:01.807Z,64.91
2023-02-08T09:54:34.534Z,65.36
2023-02-08T09:57:07.221Z,63.64
2023-02-08T09:59:36.592Z,64.95
2023-02-08T10:02:18.728Z,66.54
2023-02-08T10:04:58.052Z,63.96
2023-02-08T10:07:28.770Z,62.74
2023-02-08T10:10:00.417Z,60.99
2023-02-08T10:12:39.269Z,59.47
2023-02-08T10:15:22.323Z,58.09
2023-02-08T10:18:02.307Z,58.65
2023-02-08T10:20:41.700Z,59.35
2023-02-08T10:23:24.731Z,59.00
2023-02-08T10:26:07.883Z,58.47
2023-02-08T10:28:50.854Z,59.15
2023-02-08T10:31:30.697Z,56.70
2023-02-08T10:34:03.639Z,57.08
2023-02-08T10:36:36.412Z,55.44
2023-02-08T10:39:16.202Z,55.10
2023-02-08T10:41:45.825Z,55.29
2023-02-08T10:44:28.162Z,55.50
2023-02-08T10:47:10.015Z,56.25
2023-02-08T10:49:44.129Z,56.16
2023-02-08T10:52:12.439Z,53.96
2023-02-08T10:54:42.073Z,54.16
2023-02-08T10:57:16.877Z,56.34
2023-02-08T10:59:50.967Z,56.35
2023-02-08T11:02:23.878Z,56.75
2023-02-08T11:05:00.186Z,57.01
2023-02-08T11:07:28.489Z,57.29
2023-02-08T11:10:15.935Z,57.93
2023-02-08T11:12:54.755Z,55.53
2023-02-08T11:15:26.347Z,56.06
2023-02-08T11:17:58.121Z,55.44
2023-02-08T11:20:32.585Z,56.09
2023-02-08T11:23:01.048Z,55.71
2023-02-08T11:25:37.239Z,54.99
2023-02-08T11:28:06.671Z,54.71
2023-02-08T11:30:34.890Z,57.06
2023-02-08T11:33:19.598Z,57.71
2023-02-08T11:36:08.392Z,56.57
2023-02-08T11:38:38.054Z,58.23
2023-02-08T11:41:19.002Z,56.07
2023-02-08T11:43:58.463Z,55.75
2023-02-08T11:46:28.875Z,55.24
2023-02-08T11:48:57.722Z,53.69
2023-02-08T11:51:30.499Z,54.44
2023-02-08T11:54:01.669Z,52.14
2023-02-08T11:56:33.326Z,51.83
2023-02-08T11:59:18.315Z,53.72
2023-02-08T12:01:46.769Z,54.48
2023-02-08T12:04:17.422Z,54.15
2023-02-08T12:07:10.240Z,53.85
2023-02-08T12:10:12.036Z,52.59
2023-02-08T12:12:58.246Z,52.74
2023-02-08T12:15:51.342Z,53.62
2023-02-08T12:18:45.551Z,52.44
2023-02-08T12:21:19.251Z,53.77
2023-02-08T12:23:54.316Z,53.81
2023-02-08T12:26:35.469Z,54.05
2023-02-08T12:29:38.432Z,54.64
2023-02-08T12:32:32.862Z,55.87
2023-02-08T12:35:43.295Z,53.65
2023-02-08T12:38:44.787Z,52.66
2023-02-08T12:41:22.634Z,53.38
2023-02-08T12:44:02.348Z,53.55
2023-02-08T12:47:00.846Z,53.43
2023-02-08T12:49:46.907Z,53.76
2023-02-08T12:52:26.280Z,53.62
2023-02-08T12:54:58.972Z,54.21
2023-02-08T12:57:31.897Z,53.07
2023-02-08T13:00:04.340Z,52.88
2023-02-08T13:02:44.791Z,52.70
2023-02-08T13:05:18.887Z,52.87
2023-02-08T13:07:50.522Z,53.13
2023-02-08T13:10:27.936Z,53.40
2023-02-08T13:12:59.372Z,52.95
2023-02-08T13:15:36.892Z,53.06
2023-02-08T13:18:15.733Z,52.63
2023-02-08T13:20:47.191Z,52.03
2023-02-08T13:23:22.285Z,52.25
2023-02-08T13:25:53.415Z,54.23
2023-02-08T13:28:24.050Z,52.77
2023-02-08T13:30:59.875Z,51.95
2023-02-08T13:33:36.912Z,51.42
2023-02-08T13:36:06.347Z,51.59
2023-02-08T13:38:37.486Z,48.98
2023-02-08T13:41:09.620Z,47.61
2023-02-08T13:43:42.962Z,47.89
2023-02-08T13:46:12.614Z,49.58
2023-02-08T13:48:50.895Z,48.26
2023-02-08T13:52:02.324Z,47.92
2023-02-08T13:54:30.665Z,47.55
2023-02-08T13:56:58.918Z,48.01
2023-02-08T13:59:34.213Z,48.89
2023-02-08T14:02:27.059Z,48.25
2023-02-08T14:05:20.588Z,48.24
2023-02-08T14:07:49.995Z,47.71
2023-02-08T14:10:37.540Z,47.02
2023-02-08T14:13:18.538Z,47.86
2023-02-08T14:15:47.898Z,47.42
2023-02-08T14:18:25.574Z,48.21
2023-02-08T14:21:03.238Z,48.37
2023-02-08T14:23:33.642Z,48.18
2023-02-08T14:26:10.643Z,48.25
2023-02-08T14:28:44.001Z,48.73
2023-02-08T14:31:14.187Z,47.85
2023-02-08T14:33:45.051Z,49.21
2023-02-08T14:36:28.866Z,51.15
2023-02-08T14:39:24.518Z,52.54
2023-02-08T14:41:57.299Z,52.26
2023-02-08T14:45:03.605Z,51.66
2023-02-08T14:48:17.702Z,52.44
2023-02-08T14:51:16.626Z,52.83
2023-02-08T14:53:50.766Z,51.50
2023-02-08T14:56:23.785Z,51.87
2023-02-08T14:58:56.431Z,50.84
2023-02-08T15:01:34.848Z,52.52
2023-02-08T15:04:04.077Z,50.81
2023-02-08T15:06:59.714Z,51.94
2023-02-08T15:09:33.602Z,53.22
2023-02-08T15:12:05.255Z,66.60
2023-02-08T15:14:36.878Z,63.00
2023-02-08T15:17:05.293Z,60.45
2023-02-08T15:19:37.867Z,57.80
2023-02-08T15:22:20.497Z,48.48
2023-02-08T15:24:55.182Z,50.01
2023-02-08T15:27:25.324Z,51.16
2023-02-08T15:29:53.845Z,54.13
2023-02-08T15:32:26.649Z,56.48
2023-02-08T15:34:56.726Z,57.50
2023-02-08T15:37:25.824Z,57.39
2023-02-08T15:39:58.038Z,57.29
2023-02-08T15:42:28.937Z,57.32
2023-02-08T15:44:57.689Z,59.75
2023-02-08T15:47:29.763Z,61.26
2023-02-08T15:49:59.744Z,58.45
2023-02-08T15:52:36.257Z,59.99
2023-02-08T15:55:08.157Z,60.42
2023-02-08T15:57:40.651Z,62.16
2023-02-08T16:00:16.849Z,62.94
2023-02-08T16:02:46.046Z,64.36
2023-02-08T16:05:22.000Z,64.80
2023-02-08T16:07:51.870Z,64.29
2023-02-08T16:10:31.407Z,64.53
2023-02-08T16:13:02.189Z,63.77
2023-02-08T16:15:38.832Z,63.95
2023-02-08T16:18:07.761Z,63.36
2023-02-08T16:20:37.270Z,62.86
2023-02-08T16:23:24.743Z,62.02
2023-02-08T16:25:54.623Z,62.55
2023-02-08T16:28:28.052Z,63.70
2023-02-08T16:30:58.111Z,62.97
2023-02-08T16:33:27.094Z,63.44
2023-02-08T16:36:01.916Z,64.93
2023-02-08T16:38:32.199Z,65.43
2023-02-08T16:41:13.163Z,66.41
2023-02-08T16:43:44.065Z,66.81
2023-02-08T16:46:25.513Z,68.04
2023-02-08T16:48:55.733Z,67.80
2023-02-08T16:51:26.799Z,66.85
2023-02-08T16:53:57.662Z,67.92
2023-02-08T16:56:27.975Z,67.06
2023-02-08T16:58:56.574Z,68.69
2023-02-08T17:01:25.564Z,68.73
2023-02-08T17:03:54.844Z,69.77
2023-02-08T17:06:30.048Z,70.77
2023-02-08T17:08:59.191Z,70.49
2023-02-08T17:11:30.706Z,70.73
2023-02-08T17:14:00.751Z,70.78
2023-02-08T17:16:32.515Z,70.82
2023-02-08T17:19:01.916Z,68.77
2023-02-08T17:21:31.345Z,69.12
2023-02-08T17:24:00.251Z,68.73
2023-02-08T17:26:33.217Z,69.05
2023-02-08T17:29:02.157Z,69.13
2023-02-08T17:31:31.254Z,68.25
2023-02-08T17:34:05.161Z,69.77
2023-02-08T17:36:35.652Z,70.73
2023-02-08T17:39:08.463Z,71.82
2023-02-08T17:41:41.002Z,72.82
2023-02-08T17:44:11.026Z,74.08
2023-02-08T17:46:40.028Z,74.36
2023-02-08T17:49:09.326Z,73.82
2023-02-08T17:51:38.124Z,73.14
2023-02-08T17:54:07.012Z,73.40
2023-02-08T17:56:37.390Z,73.79
2023-02-08T17:59:08.177Z,73.70
2023-02-08T18:01:37.347Z,72.71
2023-02-08T18:04:09.587Z,73.79
2023-02-08T18:06:39.109Z,72.96
2023-02-08T18:09:08.318Z,73.71
2023-02-08T18:11:36.797Z,74.02
2023-02-08T18:14:07.167Z,73.26
2023-02-08T18:16:37.029Z,72.46
2023-02-08T18:19:07.595Z,72.97
2023-02-08T18:21:36.935Z,72.60
2023-02-08T18:24:07.944Z,71.39
2023-02-08T18:26:37.897Z,73.28
2023-02-08T18:29:10.366Z,73.27
2023-02-08T18:31:41.138Z,73.80
2023-02-08T18:34:10.059Z,74.16
2023-02-08T18:36:39.518Z,74.17
2023-02-08T18:39:09.003Z,73.90
2023-02-08T18:41:38.545Z,74.65
2023-02-08T18:44:12.536Z,75.48
2023-02-08T18:46:42.027Z,75.17
2023-02-08T18:49:13.533Z,73.20
2023-02-08T18:51:44.939Z,73.83
2023-02-08T18:54:15.742Z,74.62
2023-02-08T18:56:47.128Z,74.45
2023-02-08T18:59:20.684Z,74.74
2023-02-08T19:01:50.130Z,75.14
2023-02-08T19:04:22.021Z,74.87
2023-02-08T19:06:51.756Z,74.14
2023-02-08T19:09:21.784Z,73.99
2023-02-08T19:11:52.314Z,74.50
2023-02-08T19:14:23.419Z,75.11
2023-02-08T19:16:53.267Z,75.28
2023-02-08T19:19:23.649Z,76.65
2023-02-08T19:21:53.157Z,77.89
2023-02-08T19:24:22.504Z,78.81
2023-02-08T19:26:53.563Z,79.89
2023-02-08T19:29:24.941Z,79.77
2023-02-08T19:31:57.843Z,79.45
2023-02-08T19:34:30.320Z,80.38
2023-02-08T19:37:00.108Z,80.98
2023-02-08T19:39:29.795Z,80.53
2023-02-08T19:42:00.363Z,80.49
2023-02-08T19:44:32.076Z,81.63
2023-02-08T19:47:01.896Z,81.47
2023-02-08T19:49:32.841Z,81.87
2023-02-08T19:52:05.415Z,81.13
2023-02-08T19:54:35.045Z,81.75
2023-02-08T19:57:04.931Z,82.17
2023-02-08T19:59:40.062Z,81.90
2023-02-08T20:02:15.840Z,81.82
2023-02-08T20:04:47.111Z,81.57
2023-02-08T20:07:16.853Z,81.97
2023-02-08T20:09:46.995Z,81.87
2023-02-08T20:12:16.832Z,80.86
2023-02-08T20:14:48.576Z,81.00
2023-02-08T20:17:18.691Z,80.79
2023-02-08T20:19:47.818Z,81.74
2023-02-08T20:22:21.071Z,83.19
2023-02-08T20:24:50.353Z,82.97
2023-02-08T20:27:26.080Z,82.57
2023-02-08T20:29:59.892Z,82.45
2023-02-08T20:32:32.152Z,83.76
2023-02-08T20:35:01.146Z,84.40
2023-02-08T20:37:31.465Z,84.88
2023-02-08T20:40:01.647Z,85.66
2023-02-08T20:42:31.453Z,85.74
2023-02-08T20:45:04.810Z,86.12
2023-02-08T20:47:45.993Z,87.73
2023-02-08T20:50:19.601Z,86.57
2023-02-08T20:52:49.968Z,85.84
2023-02-08T20:55:19.878Z,86.92
2023-02-08T20:57:49.014Z,86.34
2023-02-08T21:00:24.205Z,86.46
2023-02-08T21:02:56.886Z,86.32
2023-02-08T21:05:26.493Z,85.23
2023-02-08T21:07:55.868Z,85.86
2023-02-08T21:10:25.240Z,84.92
2023-02-08T21:12:55.176Z,84.83
2023-02-08T21:15:25.921Z,85.94
2023-02-08T21:17:54.470Z,87.24
2023-02-08T21:20:22.947Z,85.80
2023-02-08T21:22:52.040Z,86.45
2023-02-08T21:25:20.645Z,86.62
2023-02-08T21:27:48.803Z,87.80
2023-02-08T21:30:19.846Z,86.66
2023-02-08T21:32:50.614Z,86.06
2023-02-08T21:35:18.894Z,86.95
2023-02-08T21:37:47.069Z,86.97
2023-02-08T21:40:15.304Z,86.95
2023-02-08T21:42:43.531Z,87.06
2023-02-08T21:45:12.336Z,86.85
2023-02-08T21:47:41.798Z,87.56
2023-02-08T21:50:29.038Z,87.56
2023-02-08T21:53:14.350Z,87.14
2023-02-08T21:55:46.560Z,88.22
2023-02-08T21:58:15.140Z,88.10
2023-02-08T22:00:43.546Z,88.65
2023-02-08T22:03:11.821Z,89.89
2023-02-08T22:05:58.812Z,90.11
2023-02-08T22:08:27.047Z,90.76
2023-02-08T22:10:58.296Z,91.08
2023-02-08T22:13:26.925Z,91.34
2023-02-08T22:15:55.119Z,91.59
2023-02-08T22:18:23.323Z,90.80
2023-02-08T22:20:54.304Z,92.30
2023-02-08T22:23:22.605Z,93.26
2023-02-08T22:25:50.696Z,93.48
2023-02-08T22:28:18.834Z,92.96
2023-02-08T22:30:49.220Z,91.35
2023-02-08T22:33:17.594Z,90.54
2023-02-08T22:35:45.690Z,91.16
2023-02-08T22:38:15.211Z,91.42
2023-02-08T22:40:43.709Z,91.27
2023-02-08T22:43:12.066Z,90.81
2023-02-08T22:45:40.195Z,89.79
2023-02-08T22:48:08.299Z,90.51
2023-02-08T22:50:38.256Z,90.72
2023-02-08T22:53:06.355Z,91.24
2023-02-08T22:55:35.887Z,91.43
2023-02-08T22:58:04.015Z,92.44
2023-02-08T23:00:32.192Z,91.99
2023-02-08T23:03:00.375Z,91.56
2023-02-08T23:05:28.581Z,90.62
2023-02-08T23:07:56.692Z,90.72
2023-02-08T23:10:24.754Z,91.01
2023-02-08T23:12:54.279Z,91.53
2023-02-08T23:15:22.617Z,91.13
2023-02-08T23:17:50.791Z,90.83
2023-02-08T23:20:19.286Z,91.36
2023-02-08T23:22:47.436Z,91.89
2023-02-08T23:25:15.892Z,92.81
2023-02-08T23:27:44.074Z,92.87
2023-02-08T23:30:14.365Z,92.93
2023-02-08T23:32:42.692Z,93.23
2023-02-08T23:35:11.477Z,93.19
2023-02-08T23:37:39.922Z,93.10
2023-02-08T23:40:09.297Z,93.82
2023-02-08T23:42:37.431Z,94.14
2023-02-08T23:45:06.493Z,94.02
2023-02-08T23:47:36.556Z,94.24
2023-02-08T23:50:04.849Z,94.58
2023-02-08T23:52:33.171Z,95.29
2023-02-08T23:55:01.295Z,95.09
2023-02-08T23:57:33.765Z,95.36
